createdAt,value
2019-03-31T00:01:53.959Z,7.30
2019-03-31T00:04:23.797Z,7.30
2019-03-31T00:06:53.686Z,7.30
2019-03-31T00:09:24.047Z,7.30
2019-03-31T00:11:53.952Z,7.20
2019-03-31T00:14:23.881Z,7.20
2019-03-31T00:16:53.760Z,7.20
2019-03-31T00:19:23.590Z,7.20
2019-03-31T00:21:54.517Z,7.10
2019-03-31T00:24:24.421Z,7.10
2019-03-31T00:26:54.273Z,7.00
2019-03-31T00:29:24.162Z,6.90
2019-03-31T00:31:53.989Z,6.90
2019-03-31T00:34:23.864Z,7.00
2019-03-31T00:36:53.752Z,7.00
2019-03-31T00:39:23.593Z,7.00
2019-03-31T00:41:53.514Z,6.90
2019-03-31T00:44:23.475Z,6.90
2019-03-31T00:46:53.305Z,6.90
2019-03-31T00:49:23.202Z,6.80
2019-03-31T00:51:53.046Z,6.80
2019-03-31T00:54:22.913Z,6.70
2019-03-31T00:56:52.828Z,6.70
2019-03-31T00:59:22.711Z,6.70
2019-03-31T01:01:56.310Z,6.60
2019-03-31T01:04:29.981Z,6.60
2019-03-31T01:07:00.383Z,6.50
2019-03-31T01:09:32.465Z,6.50
2019-03-31T01:12:05.177Z,6.40
2019-03-31T01:14:35.410Z,6.40
2019-03-31T01:17:08.773Z,6.30
2019-03-31T01:19:39.019Z,6.30
2019-03-31T01:22:09.093Z,6.30
2019-03-31T01:24:38.936Z,6.20
2019-03-31T01:27:11.026Z,6.30
2019-03-31T01:29:41.713Z,6.30
2019-03-31T01:32:12.233Z,6.20
2019-03-31T01:34:42.569Z,6.30
2019-03-31T01:37:12.906Z,6.20
2019-03-31T01:39:42.746Z,6.20
2019-03-31T01:42:12.651Z,6.20
2019-03-31T01:44:42.921Z,6.20
2019-03-31T01:47:12.924Z,6.20
2019-03-31T01:49:42.850Z,6.10
2019-03-31T01:52:12.765Z,6.00
2019-03-31T01:54:42.624Z,6.00
2019-03-31T01:57:12.520Z,5.90
2019-03-31T01:59:42.460Z,5.80
2019-03-31T02:02:16.553Z,5.80
2019-03-31T02:04:46.430Z,5.70
2019-03-31T02:07:16.270Z,5.70
2019-03-31T02:09:46.157Z,5.70
2019-03-31T02:12:16.078Z,5.70
2019-03-31T02:14:45.934Z,5.60
2019-03-31T02:17:15.823Z,5.60
2019-03-31T02:19:45.677Z,5.40
2019-03-31T02:22:15.848Z,5.40
2019-03-31T02:24:45.741Z,5.40
2019-03-31T02:27:15.571Z,5.50
2019-03-31T02:29:45.489Z,5.50
2019-03-31T02:32:23.975Z,5.50
2019-03-31T02:34:47.285Z,5.50
2019-03-31T02:37:17.219Z,5.50
2019-03-31T02:39:47.127Z,5.50
2019-03-31T02:42:16.966Z,5.50
2019-03-31T02:44:46.906Z,5.50
2019-03-31T02:47:16.796Z,5.50
2019-03-31T02:49:46.702Z,5.50
2019-03-31T02:52:16.592Z,5.60
2019-03-31T02:54:47.015Z,5.60
2019-03-31T02:57:19.082Z,5.60
2019-03-31T02:59:50.838Z,5.60
2019-03-31T03:02:40.129Z,5.60
2019-03-31T03:04:57.080Z,5.60
2019-03-31T03:07:29.564Z,5.60
2019-03-31T03:10:01.553Z,5.60
2019-03-31T03:12:35.315Z,5.60
2019-03-31T03:15:07.192Z,5.60
2019-03-31T03:17:37.106Z,5.50
2019-03-31T03:20:07.712Z,5.50
2019-03-31T03:22:37.613Z,5.60
2019-03-31T03:25:07.980Z,5.50
2019-03-31T03:27:37.821Z,5.50
2019-03-31T03:30:07.919Z,5.50
2019-03-31T03:32:37.977Z,5.40
2019-03-31T03:35:08.490Z,5.30
2019-03-31T03:37:38.437Z,5.30
2019-03-31T03:40:09.351Z,5.20
2019-03-31T03:42:39.278Z,5.10
2019-03-31T03:45:09.510Z,5.20
2019-03-31T03:47:39.397Z,5.10
2019-03-31T03:50:09.279Z,5.20
2019-03-31T03:52:39.152Z,5.20
2019-03-31T03:55:09.202Z,5.20
2019-03-31T03:57:39.161Z,5.10
2019-03-31T04:00:09.874Z,5.10
2019-03-31T04:02:39.757Z,5.10
2019-03-31T04:05:09.595Z,5.20
2019-03-31T04:07:39.470Z,5.20
2019-03-31T04:10:30.605Z,5.20
2019-03-31T04:13:00.497Z,5.20
2019-03-31T04:15:30.466Z,5.20
2019-03-31T04:18:00.295Z,5.20
2019-03-31T04:20:30.382Z,5.20
2019-03-31T04:23:00.219Z,5.20
2019-03-31T04:25:30.059Z,5.20
2019-03-31T04:28:00.042Z,5.10
2019-03-31T04:30:30.895Z,5.00
2019-03-31T04:33:00.848Z,4.90
2019-03-31T04:35:30.800Z,5.00
2019-03-31T04:38:00.698Z,5.10
2019-03-31T04:40:30.594Z,5.00
2019-03-31T04:43:00.506Z,4.90
2019-03-31T04:45:30.400Z,4.90
2019-03-31T04:48:00.231Z,4.90
2019-03-31T04:50:30.149Z,5.00
2019-03-31T04:53:00.072Z,5.00
2019-03-31T04:55:29.914Z,5.00
2019-03-31T04:57:59.793Z,5.00
2019-03-31T05:00:29.629Z,5.10
2019-03-31T05:02:59.518Z,5.00
2019-03-31T05:05:30.460Z,5.00
2019-03-31T05:08:00.292Z,5.00
2019-03-31T05:10:30.149Z,5.00
2019-03-31T05:13:00.027Z,5.10
2019-03-31T05:15:29.858Z,5.10
2019-03-31T05:17:59.753Z,5.30
2019-03-31T05:20:29.637Z,5.40
2019-03-31T05:22:59.529Z,5.40
2019-03-31T05:25:29.422Z,5.50
2019-03-31T05:27:59.257Z,5.40
2019-03-31T05:30:29.097Z,5.50
2019-03-31T05:32:59.034Z,5.50
2019-03-31T05:35:28.916Z,5.50
2019-03-31T05:37:58.797Z,5.50
2019-03-31T05:40:30.729Z,5.60
2019-03-31T05:43:00.262Z,5.50
2019-03-31T05:45:30.097Z,5.50
2019-03-31T05:47:59.987Z,5.60
2019-03-31T05:50:29.969Z,5.60
2019-03-31T05:53:00.177Z,5.60
2019-03-31T05:55:30.110Z,5.70
2019-03-31T05:57:59.974Z,5.80
2019-03-31T06:00:34.555Z,5.90
2019-03-31T06:03:04.444Z,6.00
2019-03-31T06:05:34.341Z,6.10
2019-03-31T06:08:04.313Z,6.20
2019-03-31T06:10:34.857Z,6.30
2019-03-31T06:13:04.770Z,6.40
2019-03-31T06:15:34.654Z,6.40
2019-03-31T06:18:04.941Z,6.50
2019-03-31T06:20:34.835Z,6.60
2019-03-31T06:23:05.143Z,6.70
2019-03-31T06:25:34.987Z,6.80
2019-03-31T06:28:04.878Z,6.90
2019-03-31T06:30:34.745Z,7.00
2019-03-31T06:33:06.715Z,7.20
2019-03-31T06:35:36.558Z,7.30
2019-03-31T06:38:06.473Z,7.40
2019-03-31T06:40:36.395Z,7.60
2019-03-31T06:43:07.271Z,7.90
2019-03-31T06:45:37.149Z,8.20
2019-03-31T06:48:07.125Z,8.50
2019-03-31T06:50:36.978Z,8.70
2019-03-31T06:53:06.975Z,8.90
2019-03-31T06:55:36.913Z,9.20
2019-03-31T06:58:07.917Z,9.40
2019-03-31T07:00:37.777Z,9.50
2019-03-31T07:03:08.727Z,9.60
2019-03-31T07:05:38.621Z,9.70
2019-03-31T07:08:08.580Z,9.90
2019-03-31T07:10:39.478Z,10.00
2019-03-31T07:13:09.436Z,10.10
2019-03-31T07:15:39.513Z,10.20
2019-03-31T07:18:09.589Z,10.30
2019-03-31T07:20:39.485Z,10.50
2019-03-31T07:23:09.489Z,10.60
2019-03-31T07:25:39.429Z,10.70
2019-03-31T07:28:09.394Z,10.80
2019-03-31T07:30:39.449Z,11.00
2019-03-31T07:33:09.321Z,11.10
2019-03-31T07:35:39.395Z,11.30
2019-03-31T07:38:09.416Z,11.40
2019-03-31T07:40:39.689Z,11.50
2019-03-31T07:43:10.225Z,11.70
2019-03-31T07:45:40.326Z,11.80
2019-03-31T07:48:10.306Z,11.90
2019-03-31T07:50:40.162Z,12.00
2019-03-31T07:53:10.145Z,12.10
2019-03-31T07:55:41.038Z,12.30
2019-03-31T07:58:10.973Z,12.40
2019-03-31T08:00:41.012Z,12.50
2019-03-31T08:03:10.926Z,12.60
2019-03-31T08:05:40.834Z,12.70
2019-03-31T08:08:10.721Z,12.80
2019-03-31T08:10:41.718Z,12.90
2019-03-31T08:13:11.717Z,13.00
2019-03-31T08:15:41.561Z,13.10
2019-03-31T08:18:11.521Z,13.20
2019-03-31T08:20:41.422Z,13.30
2019-03-31T08:23:11.368Z,13.30
2019-03-31T08:25:41.341Z,13.40
2019-03-31T08:28:11.315Z,13.50
2019-03-31T08:30:41.262Z,13.60
2019-03-31T08:33:11.266Z,13.60
2019-03-31T08:35:47.143Z,13.60
2019-03-31T08:38:12.862Z,13.70
2019-03-31T08:40:43.932Z,13.80
2019-03-31T08:43:14.877Z,14.00
2019-03-31T08:45:44.812Z,14.00
2019-03-31T08:48:14.771Z,14.00
2019-03-31T08:50:44.730Z,14.20
2019-03-31T08:53:14.638Z,14.20
2019-03-31T08:55:44.565Z,14.30
2019-03-31T08:58:15.451Z,14.40
2019-03-31T09:00:48.941Z,14.40
2019-03-31T09:03:19.075Z,14.50
2019-03-31T09:06:00.928Z,14.60
2019-03-31T09:08:21.414Z,14.80
2019-03-31T09:10:51.417Z,14.80
2019-03-31T09:13:22.365Z,15.00
2019-03-31T09:15:52.325Z,15.10
2019-03-31T09:18:22.219Z,15.10
2019-03-31T09:20:52.244Z,15.10
2019-03-31T09:23:22.176Z,15.20
2019-03-31T09:25:53.273Z,15.30
2019-03-31T09:28:23.170Z,15.40
2019-03-31T09:30:53.001Z,15.40
2019-03-31T09:33:22.876Z,15.50
2019-03-31T09:35:52.781Z,15.60
2019-03-31T09:38:22.717Z,15.60
2019-03-31T09:40:53.785Z,15.70
2019-03-31T09:43:23.678Z,15.80
2019-03-31T09:45:53.524Z,15.80
2019-03-31T09:48:24.582Z,15.90
2019-03-31T09:50:56.594Z,16.10
2019-03-31T09:53:26.209Z,16.20
2019-03-31T09:55:57.159Z,16.30
2019-03-31T09:58:28.240Z,16.30
2019-03-31T10:00:58.201Z,16.50
2019-03-31T10:03:28.095Z,16.60
2019-03-31T10:06:10.069Z,16.60
2019-03-31T10:08:30.134Z,16.70
2019-03-31T10:11:02.714Z,16.80
2019-03-31T10:13:31.663Z,16.90
2019-03-31T10:16:01.601Z,17.00
2019-03-31T10:18:31.437Z,17.10
2019-03-31T10:21:01.389Z,17.10
2019-03-31T10:23:31.225Z,17.20
2019-03-31T10:26:01.127Z,17.30
2019-03-31T10:28:30.971Z,17.40
2019-03-31T10:31:01.954Z,17.50
2019-03-31T10:33:32.855Z,17.60
2019-03-31T10:36:03.838Z,17.70
2019-03-31T10:38:33.825Z,17.90
2019-03-31T10:41:04.713Z,18.00
2019-03-31T10:43:35.686Z,18.20
2019-03-31T10:46:05.610Z,18.40
2019-03-31T10:48:35.596Z,18.50
2019-03-31T10:51:06.570Z,18.70
2019-03-31T10:53:36.474Z,19.00
2019-03-31T10:56:06.381Z,19.10
2019-03-31T10:58:36.273Z,19.30
2019-03-31T11:01:06.170Z,19.40
2019-03-31T11:03:36.074Z,19.40
2019-03-31T11:06:06.144Z,19.60
2019-03-31T11:08:36.040Z,19.60
2019-03-31T11:11:05.937Z,19.70
2019-03-31T11:13:35.904Z,19.80
2019-03-31T11:16:06.789Z,19.70
2019-03-31T11:18:36.718Z,19.70
2019-03-31T11:21:13.234Z,19.90
2019-03-31T11:23:43.136Z,20.10
2019-03-31T11:26:13.149Z,20.20
2019-03-31T11:28:43.113Z,20.40
2019-03-31T11:31:13.184Z,20.70
2019-03-31T11:33:43.213Z,20.70
2019-03-31T11:36:13.066Z,20.90
2019-03-31T11:38:43.170Z,21.10
2019-03-31T11:41:13.094Z,21.10
2019-03-31T11:43:43.013Z,21.20
2019-03-31T11:46:12.980Z,21.30
2019-03-31T11:48:43.914Z,21.20
2019-03-31T11:51:13.838Z,21.30
2019-03-31T11:53:43.701Z,21.30
2019-03-31T11:56:14.713Z,21.50
2019-03-31T11:58:44.652Z,21.60
2019-03-31T12:01:15.669Z,21.80
2019-03-31T12:03:45.601Z,21.80
2019-03-31T12:06:15.712Z,21.70
2019-03-31T12:08:45.850Z,21.70
2019-03-31T12:11:16.733Z,21.80
2019-03-31T12:13:47.627Z,21.90
2019-03-31T12:16:19.542Z,22.00
2019-03-31T12:18:49.468Z,22.00
2019-03-31T12:21:19.321Z,22.00
2019-03-31T12:23:49.260Z,22.10
2019-03-31T12:26:19.281Z,22.30
2019-03-31T12:28:49.434Z,22.60
2019-03-31T12:31:19.283Z,22.80
2019-03-31T12:33:49.202Z,23.00
2019-03-31T12:36:19.282Z,23.20
2019-03-31T12:38:49.120Z,23.30
2019-03-31T12:41:19.114Z,23.50
2019-03-31T12:43:48.987Z,23.60
2019-03-31T12:46:18.945Z,23.50
2019-03-31T12:48:48.967Z,23.50
2019-03-31T12:51:19.413Z,23.40
2019-03-31T12:53:51.102Z,23.70
2019-03-31T12:56:21.046Z,24.00
2019-03-31T12:58:50.953Z,24.10
2019-03-31T13:01:20.976Z,24.20
2019-03-31T13:03:50.886Z,24.10
2019-03-31T13:06:20.760Z,24.40
2019-03-31T13:08:51.754Z,24.30
2019-03-31T13:11:21.609Z,24.30
2019-03-31T13:13:51.521Z,24.50
2019-03-31T13:16:23.468Z,24.50
2019-03-31T13:18:53.709Z,24.50
2019-03-31T13:21:23.626Z,24.60
2019-03-31T13:23:53.584Z,24.70
2019-03-31T13:26:23.614Z,24.80
2019-03-31T13:28:54.503Z,25.10
2019-03-31T13:31:24.526Z,25.30
2019-03-31T13:33:55.392Z,25.20
2019-03-31T13:36:25.341Z,25.30
2019-03-31T13:38:55.283Z,25.30
2019-03-31T13:41:25.199Z,25.40
2019-03-31T13:43:55.060Z,25.30
2019-03-31T13:46:24.969Z,25.20
2019-03-31T13:48:54.809Z,25.20
2019-03-31T13:51:24.893Z,25.20
2019-03-31T13:53:55.430Z,25.10
2019-03-31T13:56:25.941Z,25.40
2019-03-31T13:58:57.445Z,26.10
2019-03-31T14:01:27.385Z,27.80
2019-03-31T14:03:57.349Z,33.00
2019-03-31T14:06:27.217Z,34.10
2019-03-31T14:08:57.166Z,37.00
2019-03-31T14:11:27.153Z,40.10
2019-03-31T14:13:58.159Z,42.30
2019-03-31T14:16:29.222Z,41.50
2019-03-31T14:18:59.286Z,42.10
2019-03-31T14:21:29.267Z,40.40
2019-03-31T14:23:59.229Z,37.10
2019-03-31T14:26:29.132Z,35.10
2019-03-31T14:29:00.079Z,32.70
2019-03-31T14:31:30.102Z,30.60
2019-03-31T14:34:00.421Z,29.60
2019-03-31T14:36:30.682Z,28.90
2019-03-31T14:39:00.656Z,28.60
2019-03-31T14:41:30.481Z,28.10
2019-03-31T14:44:00.398Z,27.40
2019-03-31T14:46:30.240Z,27.00
2019-03-31T14:49:00.109Z,26.50
2019-03-31T14:51:29.937Z,26.40
2019-03-31T14:53:59.806Z,26.50
2019-03-31T14:56:29.697Z,26.40
2019-03-31T14:58:59.681Z,26.40
2019-03-31T15:01:29.541Z,26.70
2019-03-31T15:03:59.541Z,26.90
2019-03-31T15:06:29.976Z,26.90
2019-03-31T15:09:00.560Z,26.60
2019-03-31T15:11:31.220Z,26.60
2019-03-31T15:14:01.882Z,26.30
2019-03-31T15:16:31.788Z,26.10
2019-03-31T15:19:01.637Z,26.10
2019-03-31T15:21:31.583Z,25.90
2019-03-31T15:24:01.415Z,25.60
2019-03-31T15:26:31.377Z,25.40
2019-03-31T15:29:01.337Z,25.40
2019-03-31T15:31:31.187Z,25.30
2019-03-31T15:34:01.147Z,25.30
2019-03-31T15:36:31.017Z,25.10
2019-03-31T15:39:08.623Z,24.90
2019-03-31T15:41:33.609Z,24.80
2019-03-31T15:44:03.561Z,24.70
2019-03-31T15:46:33.524Z,24.60
2019-03-31T15:49:03.624Z,24.60
2019-03-31T15:51:33.478Z,24.50
2019-03-31T15:54:03.453Z,24.70
2019-03-31T15:56:33.341Z,24.90
2019-03-31T15:59:03.410Z,24.60
2019-03-31T16:01:33.339Z,24.20
2019-03-31T16:04:03.290Z,23.80
2019-03-31T16:06:33.259Z,23.40
2019-03-31T16:09:02.694Z,23.00
2019-03-31T16:11:32.108Z,22.60
2019-03-31T16:14:01.546Z,22.20
2019-03-31T16:16:31.041Z,21.70
2019-03-31T16:19:01.185Z,21.20
2019-03-31T16:21:30.620Z,20.80
2019-03-31T16:24:00.993Z,20.50
2019-03-31T16:26:30.338Z,20.20
2019-03-31T16:28:59.704Z,20.00
2019-03-31T16:31:29.053Z,19.90
2019-03-31T16:33:58.612Z,19.80
2019-03-31T16:36:28.198Z,19.60
2019-03-31T16:38:57.778Z,19.50
2019-03-31T16:41:27.205Z,19.40
2019-03-31T16:43:56.728Z,19.30
2019-03-31T16:46:26.090Z,19.10
2019-03-31T16:48:56.456Z,19.00
2019-03-31T16:51:27.849Z,18.90
2019-03-31T16:53:57.201Z,18.80
2019-03-31T16:56:26.713Z,18.60
2019-03-31T16:58:56.060Z,18.50
2019-03-31T17:01:25.428Z,18.40
2019-03-31T17:03:54.876Z,18.30
2019-03-31T17:06:24.253Z,18.10
2019-03-31T17:08:54.552Z,18.00
2019-03-31T17:11:23.909Z,17.80
2019-03-31T17:13:53.300Z,17.70
2019-03-31T17:16:23.682Z,17.60
2019-03-31T17:18:53.433Z,17.50
2019-03-31T17:21:23.025Z,17.40
2019-03-31T17:23:52.667Z,17.30
2019-03-31T17:26:23.041Z,17.10
2019-03-31T17:28:52.346Z,17.00
2019-03-31T17:31:22.700Z,16.90
2019-03-31T17:33:52.066Z,16.90
2019-03-31T17:36:22.446Z,16.80
2019-03-31T17:38:51.848Z,16.70
2019-03-31T17:41:22.429Z,16.60
2019-03-31T17:43:51.730Z,16.50
2019-03-31T17:46:21.088Z,16.40
2019-03-31T17:48:50.443Z,16.40
2019-03-31T17:51:19.877Z,16.20
2019-03-31T17:53:49.289Z,16.10
2019-03-31T17:56:18.693Z,16.00
2019-03-31T17:58:49.182Z,15.90
2019-03-31T18:01:20.098Z,15.70
2019-03-31T18:03:50.472Z,15.60
2019-03-31T18:06:19.826Z,15.50
2019-03-31T18:08:49.194Z,15.40
2019-03-31T18:11:18.537Z,15.30
2019-03-31T18:13:47.889Z,15.30
2019-03-31T18:16:18.325Z,15.20
2019-03-31T18:18:47.664Z,15.10
2019-03-31T18:21:17.421Z,15.10
2019-03-31T18:23:46.814Z,15.10
2019-03-31T18:26:17.234Z,15.00
2019-03-31T18:28:46.610Z,15.00
2019-03-31T18:31:16.986Z,14.90
2019-03-31T18:33:46.343Z,14.80
2019-03-31T18:36:15.937Z,14.90
2019-03-31T18:38:45.357Z,14.80
2019-03-31T18:41:14.714Z,14.90
2019-03-31T18:43:51.288Z,15.00
2019-03-31T18:46:15.040Z,15.10
2019-03-31T18:48:44.463Z,15.20
2019-03-31T18:51:14.879Z,15.10
2019-03-31T18:54:03.174Z,14.90
2019-03-31T18:56:50.678Z,14.70
2019-03-31T18:59:51.099Z,14.50
2019-03-31T19:02:48.866Z,14.40
2019-03-31T19:05:35.820Z,14.30
2019-03-31T19:08:27.050Z,14.20
2019-03-31T19:11:33.937Z,14.20
2019-03-31T19:14:25.541Z,14.10
2019-03-31T19:17:13.225Z,13.90
2019-03-31T19:20:07.462Z,13.80
2019-03-31T19:22:54.734Z,13.70
2019-03-31T19:25:32.960Z,13.70
2019-03-31T19:28:19.898Z,13.70
2019-03-31T19:31:08.517Z,13.70
2019-03-31T19:34:12.783Z,13.70
2019-03-31T19:37:01.646Z,13.50
2019-03-31T19:39:49.921Z,13.40
2019-03-31T19:42:44.065Z,13.40
2019-03-31T19:45:33.080Z,13.30
2019-03-31T19:48:37.264Z,13.10
2019-03-31T19:51:25.549Z,13.00
2019-03-31T19:54:20.256Z,13.10
2019-03-31T19:57:21.176Z,13.00
2019-03-31T20:00:08.446Z,13.00
2019-03-31T20:02:59.654Z,12.90
2019-03-31T20:05:42.894Z,12.90
2019-03-31T20:08:40.604Z,12.80
2019-03-31T20:11:14.688Z,12.80
2019-03-31T20:14:06.103Z,12.90
2019-03-31T20:16:57.593Z,12.90
2019-03-31T20:19:58.407Z,12.80
2019-03-31T20:22:47.646Z,12.70
2019-03-31T20:25:24.677Z,12.60
2019-03-31T20:28:01.803Z,12.60
2019-03-31T20:31:03.122Z,12.60
2019-03-31T20:34:06.410Z,12.50
2019-03-31T20:36:41.721Z,12.50
2019-03-31T20:39:20.990Z,12.50
2019-03-31T20:41:55.245Z,12.50
2019-03-31T20:44:24.707Z,12.50
2019-03-31T20:46:54.196Z,12.50
2019-03-31T20:49:23.554Z,12.50
2019-03-31T20:51:52.986Z,12.50
2019-03-31T20:54:22.346Z,12.50
2019-03-31T20:56:52.746Z,12.50
2019-03-31T20:59:22.129Z,12.50
2019-03-31T21:01:52.557Z,12.40
2019-03-31T21:04:22.675Z,12.50
2019-03-31T21:06:52.038Z,12.40
2019-03-31T21:09:22.404Z,12.40
2019-03-31T21:11:52.760Z,12.30
2019-03-31T21:14:23.177Z,12.30
2019-03-31T21:16:53.097Z,12.30
2019-03-31T21:19:22.414Z,12.30
2019-03-31T21:21:51.761Z,12.20
2019-03-31T21:24:21.122Z,12.20
2019-03-31T21:26:51.504Z,12.20
2019-03-31T21:29:20.911Z,12.20
2019-03-31T21:31:50.329Z,12.30
2019-03-31T21:34:20.761Z,12.20
2019-03-31T21:36:51.158Z,12.20
2019-03-31T21:39:21.578Z,12.30
2019-03-31T21:44:19.653Z,12.30
2019-03-31T21:46:48.997Z,12.30
2019-03-31T21:49:18.358Z,12.20
2019-03-31T21:51:48.647Z,12.20
2019-03-31T21:54:17.981Z,12.10
2019-03-31T21:56:47.280Z,12.00
2019-03-31T21:59:16.658Z,11.90
2019-03-31T22:01:46.078Z,11.90
2019-03-31T22:04:15.442Z,11.90
2019-03-31T22:06:44.788Z,11.80
2019-03-31T22:09:14.166Z,11.70
2019-03-31T22:11:43.493Z,11.60
2019-03-31T22:14:12.845Z,11.60
2019-03-31T22:16:42.192Z,11.30
2019-03-31T22:19:11.540Z,11.30
2019-03-31T22:21:40.846Z,11.20
2019-03-31T22:24:10.274Z,11.20
2019-03-31T22:26:39.557Z,11.20
2019-03-31T22:29:27.945Z,11.10
2019-03-31T22:31:57.277Z,11.10
2019-03-31T22:36:55.377Z,10.90
2019-03-31T22:39:24.686Z,11.00
2019-03-31T22:41:54.068Z,10.90
2019-03-31T22:44:23.387Z,10.80
2019-03-31T22:46:54.386Z,10.80
2019-03-31T22:51:52.501Z,10.70
2019-03-31T22:54:21.817Z,10.70
2019-03-31T22:56:51.473Z,10.70
2019-03-31T23:01:49.617Z,10.80
2019-03-31T23:04:18.947Z,10.80
2019-03-31T23:06:48.364Z,10.90
2019-03-31T23:09:17.653Z,11.00
2019-03-31T23:11:47.020Z,11.10
2019-03-31T23:14:16.310Z,11.10
2019-03-31T23:16:45.617Z,11.10
2019-03-31T23:19:14.961Z,11.00
2019-03-31T23:21:44.262Z,11.10
2019-03-31T23:24:13.560Z,11.10
2019-03-31T23:26:42.927Z,11.10
2019-03-31T23:29:12.252Z,11.10
2019-03-31T23:31:41.665Z,11.10
2019-03-31T23:34:11.000Z,11.10
2019-03-31T23:39:09.118Z,11.00
2019-03-31T23:41:38.462Z,11.00
2019-03-31T23:44:07.813Z,11.00
2019-03-31T23:46:37.145Z,10.90
2019-03-31T23:49:06.441Z,10.90
2019-03-31T23:51:35.791Z,10.90
2019-03-31T23:54:05.128Z,10.70
2019-03-31T23:59:03.254Z,10.70
